createdAt,value
2017-01-13T00:00:34.305Z,96.83
2017-01-13T00:01:15.581Z,97.2
2017-01-13T00:01:58.287Z,97.3
2017-01-13T00:02:40.368Z,97.11
2017-01-13T00:03:25.386Z,97.02
2017-01-13T00:04:07.468Z,97.11
2017-01-13T00:04:53.432Z,96.83
2017-01-13T00:05:37.406Z,96.83
2017-01-13T00:06:19.326Z,96.83
2017-01-13T00:07:13.282Z,97.3
2017-01-13T00:08:09.528Z,97.02
2017-01-13T00:09:08.276Z,96.83
2017-01-13T00:09:49.313Z,97.02
2017-01-13T00:10:34.305Z,97.02
2017-01-13T00:11:14.798Z,97.02
2017-01-13T00:12:01.820Z,97.39
2017-01-13T00:12:43.984Z,97.02
2017-01-13T00:13:27.886Z,96.83
2017-01-13T00:14:09.800Z,97.3
2017-01-13T00:14:53.985Z,97.11
2017-01-13T00:15:36.791Z,97.02
2017-01-13T00:16:18.868Z,97.02
2017-01-13T00:16:59.895Z,97.02
2017-01-13T00:17:43.983Z,97.39
2017-01-13T00:18:33.885Z,97.02
2017-01-13T00:19:15.106Z,96.64
2017-01-13T00:19:58.400Z,97.11
2017-01-13T00:20:40.403Z,97.02
2017-01-13T00:24:30.973Z,97.02
2017-01-13T00:26:58.086Z,96.83
2017-01-13T00:27:44.961Z,96.92
2017-01-13T00:28:25.305Z,97.02
2017-01-13T00:29:06.398Z,97.11
2017-01-13T00:29:49.529Z,97.02
2017-01-13T00:30:31.701Z,96.92
2017-01-13T00:31:12.783Z,97.02
2017-01-13T00:31:53.222Z,97.2
2017-01-13T00:32:36.302Z,97.11
2017-01-13T00:33:19.624Z,96.83
2017-01-13T00:34:01.492Z,97.02
2017-01-13T00:34:41.963Z,96.92
2017-01-13T00:35:23.343Z,96.92
2017-01-13T00:36:07.526Z,96.92
2017-01-13T00:36:49.599Z,97.3
2017-01-13T00:37:31.596Z,96.73
2017-01-13T00:38:13.021Z,97.39
2017-01-13T00:38:56.192Z,97.39
2017-01-13T00:39:37.514Z,96.45
2017-01-13T00:40:20.801Z,96.92
2017-01-13T00:41:11.623Z,97.2
2017-01-13T00:41:52.068Z,97.2
2017-01-13T00:42:33.131Z,97.11
2017-01-13T00:43:15.217Z,97.02
2017-01-13T00:44:03.017Z,96.83
2017-01-13T00:44:47.018Z,96.83
2017-01-13T00:45:28.203Z,96.83
2017-01-13T00:46:12.110Z,96.64
2017-01-13T00:46:54.027Z,96.64
2017-01-13T00:47:38.010Z,96.83
2017-01-13T00:48:21.174Z,96.73
2017-01-13T00:49:06.000Z,96.73
2017-01-13T00:49:51.089Z,96.54
2017-01-13T00:50:35.179Z,96.92
2017-01-13T00:51:18.092Z,97.02
2017-01-13T00:52:02.295Z,96.92
2017-01-13T00:52:43.352Z,96.83
2017-01-13T00:53:24.774Z,96.88
2017-01-13T00:54:08.685Z,96.92
2017-01-13T00:55:02.705Z,96.97
2017-01-13T00:55:45.542Z,96.73
2017-01-13T00:56:28.821Z,96.64
2017-01-13T00:57:09.353Z,96.5
2017-01-13T00:57:52.284Z,96.92
2017-01-13T00:58:43.001Z,96.83
2017-01-13T00:59:25.192Z,97.02
2017-01-13T01:00:08.013Z,96.64
2017-01-13T01:00:50.203Z,96.92
2017-01-13T01:01:30.710Z,96.88
2017-01-13T01:02:11.690Z,96.69
2017-01-13T01:02:55.509Z,96.64
2017-01-13T01:03:36.879Z,96.92
2017-01-13T01:04:22.371Z,95.93
2017-01-13T01:05:04.500Z,95.88
2017-01-13T01:05:49.520Z,95.97
2017-01-13T01:06:29.976Z,96.16
2017-01-13T01:07:12.027Z,96.07
2017-01-13T01:07:53.326Z,96.02
2017-01-13T01:08:37.196Z,96.12
2017-01-13T01:09:23.169Z,95.93
2017-01-13T01:10:06.032Z,96.31
2017-01-13T01:10:46.520Z,96.21
2017-01-13T01:11:27.023Z,96.02
2017-01-13T01:12:10.102Z,96.31
2017-01-13T01:12:53.097Z,96.31
2017-01-13T01:13:39.028Z,96.12
2017-01-13T01:14:21.165Z,96.12
2017-01-13T01:15:01.667Z,96.21
2017-01-13T01:15:43.599Z,96.4
2017-01-13T01:16:25.681Z,96.4
2017-01-13T01:17:06.855Z,96.21
2017-01-13T01:17:56.001Z,96.31
2017-01-13T01:18:41.271Z,96.69
2017-01-13T01:19:22.528Z,96.21
2017-01-13T01:20:06.626Z,96.59
2017-01-13T01:20:51.487Z,96.69
2017-01-13T01:21:39.509Z,96.59
2017-01-13T01:22:20.835Z,96.5
2017-01-13T01:23:01.333Z,96.59
2017-01-13T01:23:42.986Z,96.5
2017-01-13T01:24:25.986Z,96.31
2017-01-13T01:25:09.181Z,96.59
2017-01-13T01:25:54.021Z,96.12
2017-01-13T01:26:39.012Z,96.02
2017-01-13T01:27:27.036Z,96.59
2017-01-13T01:28:19.018Z,96.88
2017-01-13T01:29:05.983Z,96.02
2017-01-13T01:29:48.289Z,95.83
2017-01-13T01:30:36.007Z,95.83
2017-01-13T01:31:17.223Z,96.12
2017-01-13T01:31:59.039Z,96.02
2017-01-13T01:32:42.354Z,96.02
2017-01-13T01:33:36.017Z,96.12
2017-01-13T01:34:18.008Z,96.4
2017-01-13T01:34:59.994Z,96.21
2017-01-13T01:35:42.120Z,96.12
2017-01-13T01:36:23.289Z,96.21
2017-01-13T01:37:03.793Z,96.21
2017-01-13T01:37:44.280Z,96.21
2017-01-13T01:38:25.258Z,96.21
2017-01-13T01:39:06.353Z,96.21
2017-01-13T01:39:47.367Z,96.21
2017-01-13T01:40:28.807Z,96.4
2017-01-13T01:41:10.262Z,96.02
2017-01-13T01:41:51.567Z,96.12
2017-01-13T01:42:34.590Z,96.4
2017-01-13T01:43:17.768Z,96.21
2017-01-13T01:44:06.497Z,96.12
2017-01-13T01:44:47.686Z,96.21
2017-01-13T01:45:28.874Z,96.21
2017-01-13T01:46:11.097Z,96.12
2017-01-13T01:46:56.117Z,96.02
2017-01-13T01:47:36.572Z,96.21
2017-01-13T01:48:22.695Z,96.21
2017-01-13T01:49:06.491Z,96.4
2017-01-13T01:49:48.486Z,96.21
2017-01-13T01:50:30.515Z,96.21
2017-01-13T01:51:11.533Z,96.02
2017-01-13T01:51:53.704Z,96.4
2017-01-13T01:52:39.518Z,96.12
2017-01-13T01:53:20.522Z,96.21
2017-01-13T01:54:01.612Z,96.02
2017-01-13T01:54:43.883Z,96.21
2017-01-13T01:55:25.182Z,96.31
2017-01-13T01:56:08.086Z,96.5
2017-01-13T01:56:53.988Z,96.31
2017-01-13T01:57:36.108Z,96.31
2017-01-13T01:58:17.321Z,95.74
2017-01-13T01:58:58.505Z,95.83
2017-01-13T01:59:40.708Z,95.93
2017-01-13T02:00:23.495Z,96.31
2017-01-13T02:01:06.730Z,96.31
2017-01-13T02:01:49.668Z,96.31
2017-01-13T02:02:37.585Z,96.12
2017-01-13T02:03:18.871Z,96.31
2017-01-13T02:04:01.083Z,96.21
2017-01-13T02:04:41.541Z,96.12
2017-01-13T02:05:22.020Z,96.31
2017-01-13T02:06:05.099Z,96.02
2017-01-13T02:06:47.179Z,96.02
2017-01-13T02:07:28.509Z,96.4
2017-01-13T02:08:10.505Z,96.31
2017-01-13T02:08:52.518Z,96.21
2017-01-13T02:09:34.514Z,96.12
2017-01-13T02:10:14.985Z,96.02
2017-01-13T02:10:57.009Z,96.21
2017-01-13T02:11:37.468Z,96.31
2017-01-13T02:12:20.513Z,96.21
2017-01-13T02:13:03.734Z,96.12
2017-01-13T02:13:46.019Z,96.12
2017-01-13T02:14:27.368Z,96.31
2017-01-13T02:15:08.506Z,96.31
2017-01-13T02:15:49.591Z,96.21
2017-01-13T02:16:31.586Z,96.21
2017-01-13T02:17:15.535Z,96.12
2017-01-13T02:17:57.596Z,96.4
2017-01-13T02:18:44.777Z,96.21
2017-01-13T02:19:26.612Z,96.02
2017-01-13T02:20:07.097Z,96.21
2017-01-13T02:20:50.100Z,96.12
2017-01-13T02:21:31.194Z,95.93
2017-01-13T02:22:13.590Z,96.12
2017-01-13T02:22:56.703Z,96.12
2017-01-13T02:23:39.606Z,95.83
2017-01-13T02:24:20.093Z,95.93
2017-01-13T02:25:01.513Z,95.93
2017-01-13T02:25:42.742Z,96.31
2017-01-13T02:26:23.783Z,95.93
2017-01-13T02:27:06.591Z,95.74
2017-01-13T02:27:49.621Z,96.31
2017-01-13T02:28:33.500Z,96.21
2017-01-13T02:29:14.846Z,96.31
2017-01-13T02:29:57.687Z,96.31
2017-01-13T02:30:38.149Z,96.31
2017-01-13T02:31:19.188Z,96.31
2017-01-13T02:32:00.368Z,96.12
2017-01-13T02:32:40.884Z,96.21
2017-01-13T02:33:21.342Z,96.31
2017-01-13T02:34:01.800Z,96.4
2017-01-13T02:34:45.993Z,96.02
2017-01-13T02:35:27.111Z,96.12
2017-01-13T02:36:10.004Z,96.12
2017-01-13T02:36:52.994Z,96.02
2017-01-13T02:37:33.486Z,96.02
2017-01-13T02:38:14.603Z,96.5
2017-01-13T02:38:57.713Z,96.12
2017-01-13T02:39:39.988Z,96.12
2017-01-13T02:40:22.217Z,96.4
2017-01-13T02:41:03.603Z,96.31
2017-01-13T02:41:45.016Z,96.12
2017-01-13T02:42:29.017Z,96.12
2017-01-13T02:43:11.033Z,96.12
2017-01-13T02:43:52.270Z,96.31
2017-01-13T02:44:32.765Z,96.02
2017-01-13T02:45:13.876Z,96.12
2017-01-13T02:45:55.107Z,96.21
2017-01-13T02:46:38.001Z,96.21
2017-01-13T02:47:20.008Z,95.64
2017-01-13T02:48:00.483Z,96.4
2017-01-13T02:48:44.612Z,95.45
2017-01-13T02:49:25.097Z,95.45
2017-01-13T02:50:06.501Z,95.64
2017-01-13T02:50:48.196Z,95.55
2017-01-13T02:51:30.621Z,95.55
2017-01-13T02:52:12.000Z,95.74
2017-01-13T02:52:53.220Z,95.55
2017-01-13T02:53:34.689Z,95.74
2017-01-13T02:54:18.610Z,95.74
2017-01-13T02:55:01.509Z,95.74
2017-01-13T02:55:44.592Z,95.45
2017-01-13T02:56:26.491Z,95.74
2017-01-13T02:57:10.502Z,95.74
2017-01-13T02:57:52.692Z,95.74
2017-01-13T02:58:34.591Z,95.74
2017-01-13T02:59:15.824Z,95.64
2017-01-13T02:59:56.280Z,95.45
2017-01-13T03:00:38.227Z,95.45
2017-01-13T03:01:20.189Z,95.74
2017-01-13T03:02:04.177Z,95.64
2017-01-13T03:02:45.281Z,95.74
2017-01-13T03:03:26.986Z,95.74
2017-01-13T03:04:09.992Z,95.64
2017-01-13T03:04:55.016Z,95.17
2017-01-13T03:05:38.107Z,95.17
2017-01-13T03:06:19.264Z,95.45
2017-01-13T03:07:03.003Z,95.55
2017-01-13T03:07:47.095Z,95.55
2017-01-13T03:08:27.552Z,95.55
2017-01-13T03:09:09.589Z,95.45
2017-01-13T03:09:50.586Z,95.45
2017-01-13T03:10:33.675Z,95.36
2017-01-13T03:11:15.597Z,95.55
2017-01-13T03:11:57.496Z,95.45
2017-01-13T03:12:38.792Z,95.64
2017-01-13T03:13:21.183Z,95.45
2017-01-13T03:14:01.717Z,95.64
2017-01-13T03:14:44.555Z,95.64
2017-01-13T03:15:25.620Z,95.64
2017-01-13T03:16:07.596Z,95.64
2017-01-13T03:16:48.076Z,95.74
2017-01-13T03:17:29.515Z,95.64
2017-01-13T03:18:10.698Z,95.17
2017-01-13T03:18:53.507Z,95.45
2017-01-13T03:19:33.983Z,95.74
2017-01-13T03:20:14.990Z,95.93
2017-01-13T03:20:59.100Z,95.74
2017-01-13T03:21:40.495Z,95.64
2017-01-13T03:22:21.685Z,95.64
2017-01-13T03:23:05.505Z,95.64
2017-01-13T03:23:46.491Z,95.45
2017-01-13T03:24:26.979Z,95.55
2017-01-13T03:25:09.264Z,95.93
2017-01-13T03:25:51.503Z,95.55
2017-01-13T03:26:44.498Z,95.45
2017-01-13T03:27:25.774Z,95.36
2017-01-13T03:28:09.515Z,95.64
2017-01-13T03:28:50.013Z,95.55
2017-01-13T03:29:32.010Z,95.45
2017-01-13T03:30:13.369Z,95.36
2017-01-13T03:30:53.908Z,95.36
2017-01-13T03:31:34.368Z,95.55
2017-01-13T03:32:14.842Z,95.45
2017-01-13T03:32:55.344Z,95.45
2017-01-13T03:33:39.181Z,95.55
2017-01-13T03:34:20.584Z,95.36
2017-01-13T03:35:01.095Z,95.64
2017-01-13T03:35:41.558Z,95.55
2017-01-13T03:36:26.494Z,95.26
2017-01-13T03:37:06.972Z,95.45
2017-01-13T03:37:47.460Z,95.74
2017-01-13T03:38:28.941Z,95.55
2017-01-13T03:39:09.379Z,95.45
2017-01-13T03:39:50.503Z,95.55
2017-01-13T03:40:31.590Z,95.64
2017-01-13T03:41:12.766Z,95.17
2017-01-13T03:41:53.221Z,95.55
2017-01-13T03:42:34.699Z,95.55
2017-01-13T03:43:15.147Z,95.55
2017-01-13T03:44:00.103Z,95.55
2017-01-13T03:44:40.614Z,95.55
2017-01-13T03:45:21.772Z,95.55
2017-01-13T03:46:02.238Z,95.55
2017-01-13T03:46:42.728Z,95.64
2017-01-13T03:47:23.203Z,95.55
2017-01-13T03:48:03.683Z,95.36
2017-01-13T03:48:44.133Z,95.36
2017-01-13T03:49:24.613Z,95.36
2017-01-13T03:50:05.093Z,95.36
2017-01-13T03:50:46.174Z,95.36
2017-01-13T03:51:27.294Z,95.45
2017-01-13T03:52:07.763Z,95.55
2017-01-13T03:52:48.241Z,95.45
2017-01-13T03:53:30.275Z,95.36
2017-01-13T03:54:12.993Z,95.45
2017-01-13T03:54:53.489Z,95.36
2017-01-13T03:55:33.991Z,95.36
2017-01-13T03:56:15.304Z,95.36
2017-01-13T03:56:55.758Z,95.36
2017-01-13T03:57:36.252Z,95.45
2017-01-13T03:58:17.687Z,95.26
2017-01-13T03:58:58.179Z,95.36
2017-01-13T03:59:40.985Z,95.45
2017-01-13T04:00:22.342Z,95.36
2017-01-13T04:01:02.795Z,95.64
2017-01-13T04:01:44.294Z,95.55
2017-01-13T04:02:24.743Z,95.64
2017-01-13T04:03:05.235Z,95.55
2017-01-13T04:03:45.705Z,95.45
2017-01-13T04:04:26.783Z,95.55
2017-01-13T04:05:07.265Z,95.55
2017-01-13T04:05:52.314Z,95.45
2017-01-13T04:06:32.827Z,95.45
2017-01-13T04:07:13.351Z,95.36
2017-01-13T04:07:54.508Z,95.55
2017-01-13T04:08:35.657Z,95.55
2017-01-13T04:09:17.501Z,95.74
2017-01-13T04:09:57.959Z,95.26
2017-01-13T04:10:38.984Z,95.36
2017-01-13T04:11:19.453Z,95.45
2017-01-13T04:12:01.497Z,95.64
2017-01-13T04:12:41.973Z,95.55
2017-01-13T04:13:22.441Z,95.55
2017-01-13T04:14:02.890Z,95.55
2017-01-13T04:14:44.091Z,95.45
2017-01-13T04:15:24.593Z,95.74
2017-01-13T04:16:07.605Z,95.74
2017-01-13T04:16:48.058Z,95.74
2017-01-13T04:17:29.326Z,95.74
2017-01-13T04:18:09.817Z,95.74
2017-01-13T04:18:51.899Z,95.64
2017-01-13T04:19:32.383Z,95.64
2017-01-13T04:20:14.506Z,95.64
2017-01-13T04:20:55.800Z,95.74
2017-01-13T04:21:37.701Z,95.55
2017-01-13T04:22:19.636Z,95.55
2017-01-13T04:23:00.087Z,95.55
2017-01-13T04:23:40.589Z,95.55
2017-01-13T04:24:21.105Z,95.64
2017-01-13T04:25:02.173Z,95.64
2017-01-13T04:25:42.667Z,95.64
2017-01-13T04:26:24.071Z,95.64
2017-01-13T04:27:04.593Z,95.36
2017-01-13T04:27:45.099Z,96.21
2017-01-13T04:28:28.114Z,96.4
2017-01-13T04:29:09.353Z,96.12
2017-01-13T04:29:52.166Z,96.31
2017-01-13T04:30:32.664Z,96.31
2017-01-13T04:31:13.141Z,96.02
2017-01-13T04:31:54.415Z,96.21
2017-01-13T04:32:34.884Z,96.21
2017-01-13T04:33:15.372Z,95.83
2017-01-13T04:33:56.605Z,95.93
2017-01-13T04:34:37.696Z,96.02
2017-01-13T04:35:19.201Z,96.31
2017-01-13T04:35:59.674Z,95.74
2017-01-13T04:36:41.012Z,96.21
2017-01-13T04:37:21.476Z,95.83
2017-01-13T04:38:02.862Z,96.02
2017-01-13T04:38:45.084Z,95.83
2017-01-13T04:39:26.371Z,96.31
2017-01-13T04:40:06.859Z,95.83
2017-01-13T04:40:47.343Z,96.31
2017-01-13T04:41:28.790Z,96.21
2017-01-13T04:42:09.262Z,95.83
2017-01-13T04:42:50.492Z,95.93
2017-01-13T04:43:34.497Z,96.21
2017-01-13T04:44:16.524Z,96.31
2017-01-13T04:44:59.768Z,96.31
2017-01-13T04:45:40.263Z,95.83
2017-01-13T04:46:21.703Z,96.5
2017-01-13T04:47:02.206Z,95.93
2017-01-13T04:47:44.510Z,95.83
2017-01-13T04:48:25.853Z,95.83
2017-01-13T04:49:06.991Z,96.12
2017-01-13T04:49:50.013Z,96.21
2017-01-13T04:50:30.501Z,95.83
2017-01-13T04:51:10.975Z,95.83
2017-01-13T04:51:51.463Z,95.83
2017-01-13T04:52:32.510Z,96.12
2017-01-13T04:53:12.992Z,95.74
2017-01-13T04:53:53.457Z,95.74
2017-01-13T04:54:33.924Z,95.83
2017-01-13T04:55:14.424Z,95.93
2017-01-13T04:55:54.894Z,96.12
2017-01-13T04:56:36.249Z,96.21
2017-01-13T04:57:16.743Z,96.21
2017-01-13T04:57:59.095Z,96.4
2017-01-13T04:58:39.610Z,96.12
2017-01-13T04:59:20.090Z,96.31
2017-01-13T05:00:00.562Z,96.12
2017-01-13T05:00:41.052Z,96.12
2017-01-13T05:01:22.285Z,96.12
2017-01-13T05:02:02.781Z,96.21
2017-01-13T05:02:43.230Z,96.21
2017-01-13T05:03:24.284Z,96.12
2017-01-13T05:04:04.780Z,96.31
2017-01-13T05:04:45.238Z,95.93
2017-01-13T05:05:25.746Z,96.02
2017-01-13T05:06:07.173Z,96.12
2017-01-13T05:06:47.669Z,96.12
2017-01-13T05:07:28.695Z,96.4
2017-01-13T05:08:09.667Z,96.4
2017-01-13T05:08:50.160Z,96.02
2017-01-13T05:09:30.641Z,96.12
2017-01-13T05:10:11.115Z,96.31
2017-01-13T05:10:51.563Z,96.4
2017-01-13T05:11:32.138Z,96.31
2017-01-13T05:12:12.767Z,96.12
2017-01-13T05:12:53.476Z,96.12
2017-01-13T05:13:33.970Z,96.31
2017-01-13T05:14:14.760Z,96.21
2017-01-13T05:14:55.588Z,96.21
2017-01-13T05:15:36.349Z,96.31
2017-01-13T05:16:17.007Z,96.31
2017-01-13T05:16:57.511Z,96.31
2017-01-13T05:17:37.991Z,95.93
2017-01-13T05:18:18.498Z,96.02
2017-01-13T05:18:58.968Z,95.93
2017-01-13T05:19:39.440Z,96.02
2017-01-13T05:20:19.922Z,95.83
2017-01-13T05:21:00.376Z,96.4
2017-01-13T05:21:40.874Z,95.93
2017-01-13T05:22:21.440Z,96.02
2017-01-13T05:23:01.918Z,96.5
2017-01-13T05:23:42.432Z,96.4
2017-01-13T05:24:22.905Z,96.4
2017-01-13T05:25:03.402Z,96.31
2017-01-13T05:25:43.882Z,96.4
2017-01-13T05:26:24.358Z,96.59
2017-01-13T05:27:04.814Z,96.31
2017-01-13T05:27:45.333Z,96.21
2017-01-13T05:28:25.815Z,96.12
2017-01-13T05:29:06.290Z,96.12
2017-01-13T05:29:46.781Z,96.31
2017-01-13T05:30:27.244Z,96.4
2017-01-13T05:31:07.724Z,96.21
2017-01-13T05:31:48.250Z,96.4
2017-01-13T05:32:28.709Z,96.21
2017-01-13T05:33:09.209Z,96.31
2017-01-13T05:33:49.677Z,96.12
2017-01-13T05:34:30.178Z,96.21
2017-01-13T05:35:10.630Z,96.02
2017-01-13T05:35:51.133Z,96.12
2017-01-13T05:36:31.604Z,96.26
2017-01-13T05:37:12.127Z,96.31
2017-01-13T05:37:52.605Z,96.31
2017-01-13T05:38:33.086Z,95.93
2017-01-13T05:39:13.560Z,96.16
2017-01-13T05:39:54.020Z,95.97
2017-01-13T05:40:34.525Z,96.92
2017-01-13T05:41:15.015Z,96.07
2017-01-13T05:41:55.472Z,96.88
2017-01-13T05:42:35.971Z,96.64
2017-01-13T05:43:16.441Z,96.92
2017-01-13T05:43:56.953Z,96.83
2017-01-13T05:44:37.406Z,96.64
2017-01-13T05:45:17.905Z,96.64
2017-01-13T05:45:58.383Z,96.64
2017-01-13T05:46:38.892Z,96.64
2017-01-13T05:47:19.378Z,96.73
2017-01-13T05:47:59.902Z,96.35
2017-01-13T05:48:40.383Z,96.35
2017-01-13T05:49:20.835Z,96.35
2017-01-13T05:50:01.364Z,96.45
2017-01-13T05:50:41.830Z,96.45
2017-01-13T05:51:22.337Z,95.97
2017-01-13T05:52:02.832Z,96.54
2017-01-13T05:52:43.311Z,96.73
2017-01-13T05:53:23.794Z,96.54
2017-01-13T05:54:04.291Z,96.16
2017-01-13T05:54:44.781Z,96.26
2017-01-13T05:55:25.284Z,96.26
2017-01-13T05:56:05.739Z,96.92
2017-01-13T05:56:46.240Z,96.26
2017-01-13T05:57:26.730Z,95.88
2017-01-13T05:58:07.182Z,96.92
2017-01-13T05:58:47.668Z,96.54
2017-01-13T05:59:28.157Z,96.92
2017-01-13T06:00:08.632Z,96.83
2017-01-13T06:00:49.135Z,96.92
2017-01-13T06:01:29.592Z,97.11
2017-01-13T06:02:10.074Z,96.26
2017-01-13T06:02:50.583Z,96.92
2017-01-13T06:03:31.073Z,95.97
2017-01-13T06:04:11.573Z,96.16
2017-01-13T06:04:52.049Z,96.16
2017-01-13T06:05:32.507Z,95.88
2017-01-13T06:06:12.977Z,95.88
2017-01-13T06:06:53.467Z,96.26
2017-01-13T06:07:33.942Z,96.83
2017-01-13T06:08:14.412Z,96.26
2017-01-13T06:08:54.905Z,95.88
2017-01-13T06:09:35.405Z,96.26
2017-01-13T06:10:15.852Z,96.16
2017-01-13T06:10:56.343Z,96.35
2017-01-13T06:11:36.816Z,95.88
2017-01-13T06:12:17.280Z,96.07
2017-01-13T06:12:57.761Z,95.88
2017-01-13T06:13:38.277Z,96.92
2017-01-13T06:14:18.774Z,95.88
2017-01-13T06:14:59.281Z,95.88
2017-01-13T06:15:39.763Z,96.92
2017-01-13T06:16:20.221Z,96.92
2017-01-13T06:17:00.733Z,96.26
2017-01-13T06:17:41.183Z,97.02
2017-01-13T06:18:21.936Z,96.54
2017-01-13T06:19:02.707Z,96.73
2017-01-13T06:19:43.433Z,96.83
2017-01-13T06:20:24.146Z,96.92
2017-01-13T06:21:04.783Z,97.02
2017-01-13T06:21:45.276Z,96.73
2017-01-13T06:22:25.747Z,96.73
2017-01-13T06:23:06.232Z,96.73
2017-01-13T06:23:46.730Z,96.73
2017-01-13T06:24:27.197Z,96.83
2017-01-13T06:25:07.699Z,96.64
2017-01-13T06:25:48.170Z,96.83
2017-01-13T06:26:28.640Z,96.83
2017-01-13T06:27:09.137Z,96.92
2017-01-13T06:27:49.628Z,96.92
2017-01-13T06:28:30.087Z,96.64
2017-01-13T06:29:10.583Z,96.92
2017-01-13T06:29:51.033Z,96.83
2017-01-13T06:30:31.513Z,96.92
2017-01-13T06:31:11.998Z,96.83
2017-01-13T06:31:52.474Z,96.83
2017-01-13T06:32:32.962Z,96.83
2017-01-13T06:33:13.447Z,96.73
2017-01-13T06:33:53.928Z,96.92
2017-01-13T06:34:34.431Z,96.73
2017-01-13T06:35:14.945Z,96.83
2017-01-13T06:35:55.440Z,96.73
2017-01-13T06:36:35.913Z,97.3
2017-01-13T06:37:16.439Z,96.64
2017-01-13T06:37:56.953Z,96.83
2017-01-13T06:38:37.397Z,96.83
2017-01-13T06:39:17.859Z,96.83
2017-01-13T06:39:58.332Z,96.83
2017-01-13T06:40:38.822Z,96.83
2017-01-13T06:41:19.318Z,96.92
2017-01-13T06:41:59.773Z,96.83
2017-01-13T06:42:40.243Z,96.54
2017-01-13T06:43:20.717Z,96.83
2017-01-13T06:44:01.224Z,96.92
2017-01-13T06:44:41.776Z,97.02
2017-01-13T06:45:23.474Z,96.92
2017-01-13T06:46:03.918Z,96.92
2017-01-13T06:46:44.434Z,96.83
2017-01-13T06:47:24.961Z,96.54
2017-01-13T06:48:05.429Z,96.54
2017-01-13T06:48:45.897Z,96.92
2017-01-13T06:49:26.391Z,96.64
2017-01-13T06:50:06.851Z,96.64
2017-01-13T06:50:47.339Z,96.73
2017-01-13T06:51:27.796Z,96.92
2017-01-13T06:52:08.278Z,97.3
2017-01-13T06:52:48.716Z,97.49
2017-01-13T06:53:29.214Z,97.49
2017-01-13T06:54:09.693Z,96.92
2017-01-13T06:54:50.183Z,97.58
2017-01-13T06:55:30.712Z,96.92
2017-01-13T06:56:11.244Z,97.39
2017-01-13T06:56:51.741Z,97.39
2017-01-13T06:57:32.201Z,97.39
2017-01-13T06:58:12.695Z,97.02
2017-01-13T06:58:53.143Z,97.58
2017-01-13T06:59:33.612Z,97.2
2017-01-13T07:00:14.239Z,97.49
2017-01-13T07:00:54.709Z,97.49
2017-01-13T07:01:35.213Z,97.58
2017-01-13T07:02:15.679Z,97.2
2017-01-13T07:02:56.164Z,97.2
2017-01-13T07:03:36.624Z,97.68
2017-01-13T07:04:17.175Z,97.2
2017-01-13T07:04:57.621Z,97.68
2017-01-13T07:05:38.232Z,97.2
2017-01-13T07:06:19.589Z,97.39
2017-01-13T07:07:00.059Z,97.11
2017-01-13T07:07:40.588Z,97.3
2017-01-13T07:08:21.034Z,97.39
2017-01-13T07:09:01.507Z,97.11
2017-01-13T07:09:42.001Z,97.2
2017-01-13T07:10:22.471Z,97.39
2017-01-13T07:11:02.920Z,97.2
2017-01-13T07:11:43.386Z,97.2
2017-01-13T07:12:23.890Z,97.39
2017-01-13T07:13:04.342Z,97.39
2017-01-13T07:13:44.795Z,97.39
2017-01-13T07:14:25.342Z,97.39
2017-01-13T07:15:05.759Z,97.39
2017-01-13T07:15:46.247Z,97.39
2017-01-13T07:16:26.792Z,97.39
2017-01-13T07:17:07.209Z,97.39
2017-01-13T07:17:47.621Z,97.49
2017-01-13T07:18:28.086Z,97.39
2017-01-13T07:19:08.609Z,97.39
2017-01-13T07:21:01.349Z,97.3
2017-01-13T07:21:43.968Z,97.02
2017-01-13T07:22:24.547Z,97.3
2017-01-13T07:23:05.032Z,97.34
2017-01-13T07:23:45.464Z,97.44
2017-01-13T07:24:25.980Z,97.06
2017-01-13T07:25:06.475Z,97.16
2017-01-13T07:25:46.964Z,97.06
2017-01-13T07:26:27.548Z,97.44
2017-01-13T07:27:08.044Z,97.34
2017-01-13T07:27:48.500Z,97.44
2017-01-13T07:28:28.973Z,97.44
2017-01-13T07:29:09.441Z,97.44
2017-01-13T07:29:49.943Z,97.16
2017-01-13T07:30:30.395Z,97.34
2017-01-13T07:31:10.904Z,97.44
2017-01-13T07:31:51.355Z,97.34
2017-01-13T07:32:31.843Z,97.82
2017-01-13T07:33:12.322Z,97.91
2017-01-13T07:33:52.771Z,97.72
2017-01-13T07:34:33.347Z,97.63
2017-01-13T07:35:13.928Z,97.91
2017-01-13T07:35:54.469Z,97.91
2017-01-13T07:36:35.658Z,97.82
2017-01-13T07:37:16.388Z,97.63
2017-01-13T07:37:56.885Z,97.63
2017-01-13T07:38:37.858Z,97.63
2017-01-13T07:39:18.412Z,97.82
2017-01-13T07:39:58.945Z,97.91
2017-01-13T07:40:39.437Z,97.44
2017-01-13T07:41:20.168Z,97.63
2017-01-13T07:42:00.705Z,97.91
2017-01-13T07:42:41.201Z,97.82
2017-01-13T07:43:21.650Z,97.63
2017-01-13T07:44:02.160Z,97.63
2017-01-13T07:44:42.629Z,97.63
2017-01-13T07:45:23.631Z,97.63
2017-01-13T07:46:04.087Z,97.63
2017-01-13T07:46:44.579Z,97.63
2017-01-13T07:47:25.039Z,97.63
2017-01-13T07:48:05.539Z,97.72
2017-01-13T07:48:46.010Z,97.63
2017-01-13T07:49:26.468Z,97.63
2017-01-13T07:50:06.978Z,98.2
2017-01-13T07:50:47.463Z,97.82
2017-01-13T07:51:27.928Z,97.82
2017-01-13T07:52:09.034Z,97.91
2017-01-13T07:52:49.512Z,98.2
2017-01-13T07:53:30.006Z,98.2
2017-01-13T07:54:10.488Z,97.91
2017-01-13T07:54:50.982Z,98.01
2017-01-13T07:55:31.544Z,98.2
2017-01-13T07:56:12.157Z,98.2
2017-01-13T07:56:52.765Z,97.91
2017-01-13T07:57:33.219Z,98.01
2017-01-13T07:58:13.709Z,98.01
2017-01-13T07:58:54.222Z,98.01
2017-01-13T07:59:34.698Z,98.1
2017-01-13T08:00:15.180Z,98.1
2017-01-13T08:00:55.628Z,98.77
2017-01-13T08:01:36.127Z,97.82
2017-01-13T08:02:16.600Z,98.1
2017-01-13T08:02:57.067Z,98.67
2017-01-13T08:03:37.589Z,98.77
2017-01-13T08:04:18.171Z,98.48
2017-01-13T08:04:58.654Z,98.71
2017-01-13T08:05:39.096Z,98.48
2017-01-13T08:06:21.648Z,98.33
2017-01-13T08:07:01.847Z,98.52
2017-01-13T08:07:42.346Z,98.81
2017-01-13T08:08:22.839Z,98.33
2017-01-13T08:09:03.284Z,98.43
2017-01-13T08:09:43.769Z,98.52
2017-01-13T08:10:24.295Z,98.52
2017-01-13T08:11:04.753Z,98.14
2017-01-13T08:11:45.249Z,98.24
2017-01-13T08:12:25.764Z,99.09
2017-01-13T08:13:06.276Z,98.81
2017-01-13T08:13:46.748Z,99
2017-01-13T08:14:27.230Z,98.9
2017-01-13T08:15:07.731Z,98.9
2017-01-13T08:15:48.194Z,98.62
2017-01-13T08:16:28.669Z,98.9
2017-01-13T08:17:09.266Z,99
2017-01-13T08:17:51.625Z,98.9
2017-01-13T08:18:32.112Z,98.81
2017-01-13T08:21:02.963Z,99.09
2017-01-13T08:21:45.244Z,99.09
2017-01-13T08:22:26.951Z,99
2017-01-13T08:23:07.384Z,99
2017-01-13T08:23:47.892Z,98.81
2017-01-13T08:24:28.345Z,98.71
2017-01-13T08:25:08.854Z,98.71
2017-01-13T08:25:49.437Z,98.71
2017-01-13T08:26:29.915Z,99.19
2017-01-13T08:27:10.427Z,98.71
2017-01-13T08:27:50.879Z,99.09
2017-01-13T08:28:31.346Z,98.9
2017-01-13T08:29:11.796Z,99.66
2017-01-13T08:29:52.263Z,99.47
2017-01-13T08:30:32.757Z,99.66
2017-01-13T08:31:13.299Z,98.81
2017-01-13T08:31:53.821Z,99.57
2017-01-13T08:32:34.281Z,99.66
2017-01-13T08:33:14.762Z,99.47
2017-01-13T08:33:55.267Z,99.38
2017-01-13T08:34:35.718Z,99.57
2017-01-13T08:35:16.242Z,99.66
2017-01-13T08:35:56.720Z,98.81
2017-01-13T08:36:37.205Z,99.66
2017-01-13T08:37:17.682Z,98.81
2017-01-13T08:37:58.175Z,98.81
2017-01-13T08:38:38.651Z,99.66
2017-01-13T08:39:19.165Z,99.66
2017-01-13T08:39:59.665Z,99.66
2017-01-13T08:40:40.166Z,99.66
2017-01-13T08:41:20.646Z,98.81
2017-01-13T08:42:01.116Z,99.66
2017-01-13T08:42:41.622Z,99.57
2017-01-13T08:43:22.102Z,99.66
2017-01-13T08:44:02.573Z,99.76
2017-01-13T08:44:43.054Z,99.66
2017-01-13T08:45:23.776Z,99.66
2017-01-13T08:46:05.254Z,99.66
2017-01-13T08:46:45.699Z,98.81
2017-01-13T08:47:26.193Z,98.71
2017-01-13T08:48:06.682Z,98.9
2017-01-13T08:48:47.134Z,99.19
2017-01-13T08:49:27.623Z,99.19
2017-01-13T08:50:08.091Z,99
2017-01-13T08:50:48.649Z,99.09
2017-01-13T08:51:29.137Z,99.66
2017-01-13T08:52:09.906Z,99.19
2017-01-13T08:52:50.631Z,99.19
2017-01-13T08:53:31.228Z,99.19
2017-01-13T08:54:11.811Z,99.09
2017-01-13T08:54:54.947Z,99.09
2017-01-13T08:55:35.417Z,99.19
2017-01-13T08:56:15.973Z,99
2017-01-13T08:56:56.534Z,99
2017-01-13T08:57:37.059Z,99
2017-01-13T08:58:17.491Z,99
2017-01-13T08:58:58.036Z,98.81
2017-01-13T08:59:43.141Z,99
2017-01-13T09:00:24.501Z,99.09
2017-01-13T09:01:05.128Z,99.09
2017-01-13T09:03:20.281Z,99
2017-01-13T09:04:01.085Z,99
2017-01-13T09:04:43.547Z,99
2017-01-13T09:05:24.089Z,99
2017-01-13T09:06:04.550Z,99
2017-01-13T09:06:45.077Z,99